createdAt,value
2023-02-13T00:00:02.134Z,26.55
2023-02-13T00:05:03.942Z,28.00
2023-02-13T00:10:06.433Z,27.25
2023-02-13T00:15:08.984Z,28.05
2023-02-13T00:20:11.888Z,29.27
2023-02-13T00:25:13.678Z,28.83
2023-02-13T00:30:16.419Z,27.98
2023-02-13T00:35:18.386Z,28.45
2023-02-13T00:40:20.207Z,26.67
2023-02-13T00:45:22.195Z,28.05
2023-02-13T00:50:23.948Z,27.02
2023-02-13T00:55:25.794Z,28.67
2023-02-13T01:00:28.015Z,26.80
2023-02-13T01:05:30.037Z,25.30
2023-02-13T01:10:32.126Z,27.98
2023-02-13T01:15:34.620Z,25.00
2023-02-13T01:20:36.369Z,24.98
2023-02-13T01:25:42.929Z,25.73
2023-02-13T01:30:44.793Z,26.35
2023-02-13T01:35:46.761Z,28.33
2023-02-13T01:40:50.557Z,26.50
2023-02-13T01:45:56.940Z,25.42
2023-02-13T01:51:04.082Z,26.00
2023-02-13T01:56:09.010Z,26.92
2023-02-13T02:01:11.716Z,26.52
2023-02-13T02:06:23.725Z,25.75
2023-02-13T02:11:43.036Z,25.95
2023-02-13T02:16:44.975Z,26.48
2023-02-13T02:22:01.797Z,24.88
2023-02-13T02:27:19.582Z,25.65
2023-02-13T02:32:42.512Z,28.35
2023-02-13T02:37:50.026Z,29.42
2023-02-13T02:43:16.492Z,25.80
2023-02-13T02:48:55.218Z,26.40
2023-02-13T02:54:46.509Z,25.90
2023-02-13T03:00:08.015Z,26.60
2023-02-13T03:05:56.309Z,25.67
2023-02-13T03:11:16.669Z,25.25
2023-02-13T03:16:40.732Z,18.90
2023-02-13T03:22:11.729Z,27.08
2023-02-13T03:27:46.351Z,24.63
2023-02-13T03:33:05.856Z,23.08
2023-02-13T03:38:46.607Z,22.75
2023-02-13T03:49:32.800Z,20.63
2023-02-13T03:55:07.612Z,18.73
2023-02-13T04:00:12.619Z,18.98
2023-02-13T04:05:22.865Z,18.67
2023-02-13T04:10:27.968Z,13.13
2023-02-13T04:15:43.598Z,18.63
2023-02-13T04:20:45.451Z,17.77
2023-02-13T04:25:50.943Z,18.42
2023-02-13T04:30:52.848Z,17.52
2023-02-13T04:35:54.789Z,15.75
2023-02-13T04:40:56.858Z,17.65
2023-02-13T04:45:58.925Z,16.65
2023-02-13T04:51:00.782Z,16.95
2023-02-13T04:56:02.576Z,15.60
2023-02-13T05:01:15.323Z,15.30
2023-02-13T05:06:17.221Z,14.93
2023-02-13T05:11:19.000Z,15.50
2023-02-13T05:16:20.783Z,14.68
2023-02-13T05:21:41.365Z,14.88
2023-02-13T05:26:43.350Z,14.98
2023-02-13T05:31:46.951Z,14.02
2023-02-13T05:36:49.541Z,13.55
2023-02-13T05:41:51.398Z,13.10
2023-02-13T05:46:53.730Z,14.48
2023-02-13T05:51:55.482Z,14.18
2023-02-13T05:56:57.460Z,12.77
2023-02-13T06:01:59.235Z,13.63
2023-02-13T06:07:01.033Z,13.88
2023-02-13T06:12:02.822Z,14.55
2023-02-13T06:17:04.631Z,14.88
2023-02-13T06:22:06.362Z,14.60
2023-02-13T06:27:08.168Z,13.82
2023-02-13T06:32:09.938Z,13.90
2023-02-13T06:37:11.744Z,14.10
2023-02-13T06:42:16.455Z,15.20
2023-02-13T06:47:18.701Z,14.45
2023-02-13T06:52:21.514Z,14.55
2023-02-13T06:57:23.299Z,15.07
2023-02-13T07:02:25.227Z,14.30
2023-02-13T07:07:27.170Z,15.90
2023-02-13T07:12:29.400Z,13.40
2023-02-13T07:17:31.378Z,16.17
2023-02-13T07:22:33.593Z,15.65
2023-02-13T07:27:35.486Z,15.10
2023-02-13T07:32:37.317Z,17.35
2023-02-13T07:37:39.143Z,14.77
2023-02-13T07:42:40.895Z,16.15
2023-02-13T07:47:42.996Z,17.35
2023-02-13T07:52:44.802Z,16.90
2023-02-13T07:57:46.599Z,15.80
2023-02-13T08:02:49.085Z,16.30
2023-02-13T08:07:50.849Z,16.15
2023-02-13T08:12:54.000Z,16.23
2023-02-13T08:17:56.020Z,15.43
2023-02-13T08:23:06.116Z,16.02
2023-02-13T08:28:08.027Z,12.55
2023-02-13T08:33:09.858Z,15.70
2023-02-13T08:38:11.756Z,15.52
2023-02-13T08:43:13.645Z,16.33
2023-02-13T08:48:15.562Z,16.10
2023-02-13T08:53:17.382Z,16.35
2023-02-13T08:58:19.250Z,18.27
2023-02-13T09:03:21.083Z,16.83
2023-02-13T09:08:24.377Z,16.77
2023-02-13T09:13:27.083Z,16.45
2023-02-13T09:18:29.277Z,16.25
2023-02-13T09:23:33.539Z,15.90
2023-02-13T09:28:36.509Z,15.55
2023-02-13T09:33:38.742Z,15.20
2023-02-13T09:38:44.100Z,13.57
2023-02-13T09:43:53.432Z,15.38
2023-02-13T09:48:57.576Z,14.05
2023-02-13T09:54:03.094Z,14.50
2023-02-13T09:59:28.482Z,13.20
2023-02-13T10:04:42.170Z,14.43
2023-02-13T10:09:52.691Z,13.30
2023-02-13T10:15:15.725Z,11.05
2023-02-13T10:20:36.048Z,11.73
2023-02-13T10:25:53.765Z,12.88
2023-02-13T10:31:01.912Z,13.40
2023-02-13T10:36:09.539Z,11.70
2023-02-13T10:41:44.471Z,10.70
2023-02-13T10:47:06.973Z,10.95
2023-02-13T10:52:29.825Z,10.48
2023-02-13T10:57:46.764Z,10.80
2023-02-13T11:02:48.704Z,12.02
2023-02-13T11:07:50.549Z,10.95
2023-02-13T11:12:53.205Z,9.93
2023-02-13T11:18:03.417Z,10.80
2023-02-13T11:23:23.953Z,8.55
2023-02-13T11:28:28.367Z,12.05
2023-02-13T11:33:30.215Z,11.43
2023-02-13T11:38:32.176Z,10.98
2023-02-13T11:43:53.896Z,9.77
2023-02-13T11:49:13.865Z,9.95
2023-02-13T11:54:30.666Z,9.27
2023-02-13T11:59:40.160Z,10.00
2023-02-13T12:04:42.904Z,9.77
2023-02-13T12:09:46.740Z,8.45
2023-02-13T12:14:49.477Z,9.25
2023-02-13T12:19:51.681Z,8.85
2023-02-13T12:25:02.247Z,8.20
2023-02-13T12:30:35.835Z,7.80
2023-02-13T12:35:55.238Z,9.00
2023-02-13T12:41:14.472Z,9.23
2023-02-13T12:46:19.012Z,8.75
2023-02-13T12:51:59.946Z,8.73
2023-02-13T12:57:16.834Z,9.60
2023-02-13T13:02:27.431Z,8.10
2023-02-13T13:13:48.446Z,9.35
2023-02-13T13:19:22.429Z,9.65
2023-02-13T13:24:43.005Z,8.57
2023-02-13T13:29:53.545Z,8.00
2023-02-13T13:34:56.990Z,6.82
2023-02-13T13:40:16.624Z,8.27
2023-02-13T13:45:29.945Z,7.32
2023-02-13T13:50:35.443Z,7.05
2023-02-13T13:56:09.436Z,7.95
2023-02-13T14:01:31.725Z,7.25
2023-02-13T14:06:45.681Z,7.10
2023-02-13T14:11:47.522Z,7.55
2023-02-13T14:16:49.553Z,7.97
2023-02-13T14:21:51.496Z,7.18
2023-02-13T14:27:05.097Z,6.78
2023-02-13T14:32:37.947Z,6.07
2023-02-13T14:37:50.272Z,5.65
2023-02-13T14:43:05.472Z,6.55
2023-02-13T14:48:14.002Z,6.03
2023-02-13T14:53:25.046Z,6.07
2023-02-13T14:58:32.469Z,6.80
2023-02-13T15:03:40.331Z,5.97
2023-02-13T15:08:49.401Z,5.47
2023-02-13T15:13:51.207Z,4.90
2023-02-13T15:18:55.316Z,5.05
2023-02-13T15:23:57.277Z,4.72
2023-02-13T15:29:27.835Z,4.88
2023-02-13T15:34:36.114Z,4.32
2023-02-13T15:39:37.874Z,4.60
2023-02-13T15:44:40.861Z,4.45
2023-02-13T15:49:45.532Z,5.00
2023-02-13T15:54:50.577Z,5.45
2023-02-13T15:59:54.446Z,5.10
2023-02-13T16:04:56.628Z,5.10
2023-02-13T16:10:26.216Z,5.13
2023-02-13T16:15:30.997Z,5.63
2023-02-13T16:20:35.250Z,5.90
2023-02-13T16:25:39.427Z,4.82
2023-02-13T16:30:47.073Z,6.68
2023-02-13T16:35:59.114Z,6.57
2023-02-13T16:41:05.934Z,8.63
2023-02-13T16:46:19.414Z,7.72
2023-02-13T16:51:43.416Z,6.68
2023-02-13T16:56:52.438Z,6.82
2023-02-13T17:02:30.347Z,7.30
2023-02-13T17:07:43.738Z,7.05
2023-02-13T17:12:47.085Z,7.63
2023-02-13T17:17:50.855Z,8.02
2023-02-13T17:22:55.192Z,7.57
2023-02-13T17:28:06.973Z,7.47
2023-02-13T17:33:35.549Z,8.57
2023-02-13T17:38:37.411Z,8.32
2023-02-13T17:43:39.217Z,9.85
2023-02-13T17:48:40.978Z,8.68
2023-02-13T17:53:43.019Z,8.57
2023-02-13T17:58:44.866Z,8.02
2023-02-13T18:03:46.874Z,8.20
2023-02-13T18:08:48.869Z,10.15
2023-02-13T18:13:50.665Z,10.85
2023-02-13T18:18:52.867Z,10.43
2023-02-13T18:23:54.703Z,9.48
2023-02-13T18:28:56.520Z,10.95
2023-02-13T18:33:58.427Z,11.02
2023-02-13T18:39:00.411Z,11.57
2023-02-13T18:44:02.302Z,11.95
2023-02-13T18:49:04.866Z,12.55
2023-02-13T18:54:06.937Z,12.75
2023-02-13T18:59:08.760Z,11.95
2023-02-13T19:04:11.086Z,12.48
2023-02-13T19:09:13.244Z,13.52
2023-02-13T19:14:15.207Z,13.32
2023-02-13T19:19:17.125Z,13.30
2023-02-13T19:24:19.102Z,12.32
2023-02-13T19:29:21.316Z,12.77
2023-02-13T19:34:23.096Z,12.63
2023-02-13T19:39:24.894Z,13.73
2023-02-13T19:44:26.771Z,14.07
2023-02-13T19:49:28.568Z,13.52
2023-02-13T19:54:30.431Z,14.27
2023-02-13T19:59:32.734Z,16.10
2023-02-13T20:04:36.800Z,15.48
2023-02-13T20:09:40.532Z,15.93
2023-02-13T20:14:42.561Z,15.85
2023-02-13T20:19:44.305Z,16.42
2023-02-13T20:24:47.228Z,16.23
2023-02-13T20:29:49.046Z,16.98
2023-02-13T20:34:59.521Z,16.77
2023-02-13T20:40:02.177Z,16.75
2023-02-13T20:45:04.662Z,16.33
2023-02-13T20:50:07.185Z,16.42
2023-02-13T20:55:09.154Z,17.60
2023-02-13T21:00:14.241Z,15.95
2023-02-13T21:05:18.904Z,15.98
2023-02-13T21:10:20.728Z,16.70
2023-02-13T21:15:22.579Z,17.88
2023-02-13T21:20:24.761Z,16.92
2023-02-13T21:25:26.740Z,17.92
2023-02-13T21:30:28.573Z,18.50
2023-02-13T21:35:30.360Z,17.80
2023-02-13T21:40:32.340Z,16.75
2023-02-13T21:45:34.265Z,16.58
2023-02-13T21:50:37.617Z,14.95
2023-02-13T21:55:39.364Z,15.55
2023-02-13T22:00:41.235Z,14.75
2023-02-13T22:05:47.425Z,14.40
2023-02-13T22:10:56.270Z,14.23
2023-02-13T22:16:02.095Z,15.32
2023-02-13T22:21:08.132Z,15.27
2023-02-13T22:26:35.125Z,14.85
2023-02-13T22:31:37.548Z,15.45
2023-02-13T22:36:39.601Z,14.57
2023-02-13T22:41:44.694Z,16.33
2023-02-13T22:46:46.495Z,16.08
2023-02-13T22:51:48.255Z,16.95
2023-02-13T22:56:50.008Z,14.93
2023-02-13T23:01:51.990Z,13.90
2023-02-13T23:06:53.754Z,15.40
2023-02-13T23:12:14.036Z,15.15
2023-02-13T23:17:34.560Z,14.43
2023-02-13T23:22:36.427Z,10.32
2023-02-13T23:27:38.316Z,15.55
2023-02-13T23:32:40.153Z,16.08
2023-02-13T23:37:42.380Z,14.55
2023-02-13T23:42:44.775Z,15.82
2023-02-13T23:47:47.888Z,13.70
2023-02-13T23:52:49.698Z,14.70
2023-02-13T23:57:52.234Z,13.85
